createdAt,value
2024-03-05T00:00:39.460Z,100237.94
2024-03-05T00:03:06.485Z,100231.58
2024-03-05T00:05:33.528Z,100227.02
2024-03-05T00:08:00.696Z,100231.45
2024-03-05T00:10:28.109Z,100229.00
2024-03-05T00:12:55.460Z,100228.19
2024-03-05T00:15:23.005Z,100230.31
2024-03-05T00:17:50.021Z,100227.00
2024-03-05T00:20:20.398Z,100230.34
2024-03-05T00:22:48.519Z,100229.46
2024-03-05T00:25:15.882Z,100229.52
2024-03-05T00:27:43.063Z,100229.58
2024-03-05T00:30:11.034Z,100226.83
2024-03-05T00:32:41.209Z,100222.30
2024-03-05T00:35:08.727Z,100219.73
2024-03-05T00:37:37.118Z,100218.27
2024-03-05T00:40:08.069Z,100218.39
2024-03-05T00:42:39.097Z,100218.70
2024-03-05T00:45:10.013Z,100218.17
2024-03-05T00:47:37.964Z,100217.75
2024-03-05T00:50:06.031Z,100217.07
2024-03-05T00:52:34.467Z,100222.92
2024-03-05T00:55:01.967Z,100220.65
2024-03-05T00:57:30.290Z,100226.59
2024-03-05T00:59:57.766Z,100223.98
2024-03-05T01:02:24.928Z,100222.81
2024-03-05T01:04:54.498Z,100224.08
2024-03-05T01:07:21.982Z,100223.98
2024-03-05T01:09:49.396Z,100223.11
2024-03-05T01:12:17.163Z,100217.54
2024-03-05T01:14:45.388Z,100217.11
2024-03-05T01:17:13.989Z,100218.88
2024-03-05T01:19:41.164Z,100219.17
2024-03-05T01:22:08.344Z,100215.33
2024-03-05T01:24:35.432Z,100216.75
2024-03-05T01:27:02.478Z,100218.44
2024-03-05T01:29:31.813Z,100216.99
2024-03-05T01:32:01.404Z,100214.90
2024-03-05T01:34:34.222Z,100213.29
2024-03-05T01:37:01.400Z,100215.73
2024-03-05T01:39:29.837Z,100217.86
2024-03-05T01:41:57.343Z,100217.98
2024-03-05T01:44:24.929Z,100221.42
2024-03-05T01:46:53.078Z,100216.94
2024-03-05T01:49:20.629Z,100220.23
2024-03-05T01:51:47.631Z,100219.16
2024-03-05T01:54:15.570Z,100217.29
2024-03-05T01:56:43.945Z,100218.44
2024-03-05T01:59:11.371Z,100217.09
2024-03-05T02:01:38.679Z,100220.36
2024-03-05T02:04:05.730Z,100217.92
2024-03-05T02:06:32.986Z,100216.61
2024-03-05T02:09:01.034Z,100215.83
2024-03-05T02:11:28.230Z,100211.48
2024-03-05T02:13:55.344Z,100209.06
2024-03-05T02:16:22.393Z,100207.24
2024-03-05T02:18:49.599Z,100208.25
2024-03-05T02:21:22.023Z,100207.41
2024-03-05T02:23:49.561Z,100204.07
2024-03-05T02:26:18.886Z,100204.33
2024-03-05T02:28:47.818Z,100205.11
2024-03-05T02:31:14.880Z,100204.13
2024-03-05T02:33:43.442Z,100198.33
2024-03-05T02:36:10.556Z,100201.98
2024-03-05T02:38:39.432Z,100199.35
2024-03-05T02:41:06.906Z,100203.33
2024-03-05T02:43:34.933Z,100200.33
2024-03-05T02:46:02.072Z,100202.38
2024-03-05T02:48:29.116Z,100199.02
2024-03-05T02:50:56.582Z,100196.59
2024-03-05T02:53:25.472Z,100195.01
2024-03-05T02:55:52.439Z,100201.14
2024-03-05T02:58:19.561Z,100201.25
2024-03-05T03:00:48.294Z,100202.05
2024-03-05T03:03:15.995Z,100195.75
2024-03-05T03:05:42.997Z,100196.48
2024-03-05T03:08:10.066Z,100192.50
2024-03-05T03:10:37.183Z,100193.72
2024-03-05T03:13:04.357Z,100198.27
2024-03-05T03:15:31.759Z,100197.98
2024-03-05T03:17:59.208Z,100196.82
2024-03-05T03:20:26.297Z,100196.44
2024-03-05T03:22:53.636Z,100193.65
2024-03-05T03:25:20.837Z,100196.80
2024-03-05T03:27:47.922Z,100195.90
2024-03-05T03:30:19.499Z,100196.23
2024-03-05T03:32:51.573Z,100197.20
2024-03-05T03:35:19.270Z,100198.56
2024-03-05T03:37:46.193Z,100196.83
2024-03-05T03:40:22.291Z,100198.71
2024-03-05T03:42:50.911Z,100199.45
2024-03-05T03:45:18.523Z,100197.68
2024-03-05T03:47:47.450Z,100198.52
2024-03-05T03:50:14.745Z,100199.60
2024-03-05T03:52:42.545Z,100200.77
2024-03-05T03:55:10.337Z,100200.80
2024-03-05T03:57:37.541Z,100197.89
2024-03-05T04:00:09.306Z,100198.98
2024-03-05T04:02:37.857Z,100195.61
2024-03-05T04:05:06.240Z,100194.06
2024-03-05T04:07:33.770Z,100199.08
2024-03-05T04:10:03.824Z,100194.08
2024-03-05T04:12:31.268Z,100189.79
2024-03-05T04:14:58.220Z,100187.08
2024-03-05T04:17:25.519Z,100189.69
2024-03-05T04:19:52.777Z,100187.73
2024-03-05T04:22:19.851Z,100192.02
2024-03-05T04:24:58.354Z,100187.64
2024-03-05T04:27:28.336Z,100190.08
2024-03-05T04:29:58.255Z,100194.86
2024-03-05T04:32:28.278Z,100192.08
2024-03-05T04:35:07.984Z,100193.52
2024-03-05T04:37:34.997Z,100191.55
2024-03-05T04:40:01.951Z,100190.02
2024-03-05T04:42:29.624Z,100187.25
2024-03-05T04:44:56.666Z,100187.41
2024-03-05T04:47:26.236Z,100188.23
2024-03-05T04:49:53.453Z,100187.33
2024-03-05T04:52:20.653Z,100191.16
2024-03-05T04:54:47.673Z,100185.92
2024-03-05T04:57:14.745Z,100191.67
2024-03-05T04:59:42.493Z,100186.91
2024-03-05T05:02:10.334Z,100184.89
2024-03-05T05:04:39.463Z,100188.13
2024-03-05T05:07:09.612Z,100190.25
2024-03-05T05:09:41.127Z,100187.34
2024-03-05T05:12:08.295Z,100188.19
2024-03-05T05:14:38.632Z,100189.42
2024-03-05T05:17:06.260Z,100192.73
2024-03-05T05:19:33.404Z,100191.75
2024-03-05T05:22:00.443Z,100193.93
2024-03-05T05:24:27.444Z,100189.51
2024-03-05T05:26:54.524Z,100191.31
2024-03-05T05:29:31.429Z,100195.02
2024-03-05T05:32:08.960Z,100187.71
2024-03-05T05:34:36.806Z,100188.87
2024-03-05T05:37:03.867Z,100187.29
2024-03-05T05:39:30.896Z,100182.99
2024-03-05T05:41:57.827Z,100194.01
2024-03-05T05:44:24.968Z,100190.55
2024-03-05T05:46:52.606Z,100193.64
2024-03-05T05:49:22.602Z,100191.20
2024-03-05T05:51:52.661Z,100192.15
2024-03-05T05:54:22.632Z,100192.60
2024-03-05T05:56:50.337Z,100189.40
2024-03-05T05:59:18.926Z,100189.13
2024-03-05T06:01:46.662Z,100184.46
2024-03-05T06:04:15.761Z,100184.43
2024-03-05T06:06:42.916Z,100182.64
2024-03-05T06:09:10.311Z,100181.05
2024-03-05T06:11:38.053Z,100179.16
2024-03-05T06:14:05.490Z,100177.36
2024-03-05T06:16:32.676Z,100176.93
2024-03-05T06:19:00.020Z,100176.98
2024-03-05T06:21:27.215Z,100173.01
2024-03-05T06:23:54.199Z,100166.79
2024-03-05T06:26:21.248Z,100171.24
2024-03-05T06:28:48.331Z,100168.95
2024-03-05T06:31:16.098Z,100166.95
2024-03-05T06:33:43.183Z,100168.04
2024-03-05T06:36:13.732Z,100169.64
2024-03-05T06:38:41.148Z,100169.88
2024-03-05T06:41:09.717Z,100171.04
2024-03-05T06:43:39.809Z,100168.21
2024-03-05T06:46:11.164Z,100163.39
2024-03-05T06:48:39.481Z,100162.98
2024-03-05T06:51:17.704Z,100166.31
2024-03-05T06:54:03.395Z,100166.49
2024-03-05T06:56:42.633Z,100168.88
2024-03-05T06:59:11.817Z,100167.04
2024-03-05T07:01:39.088Z,100164.23
2024-03-05T07:04:08.191Z,100161.55
2024-03-05T07:06:36.851Z,100161.88
2024-03-05T07:09:03.998Z,100160.84
2024-03-05T07:11:31.613Z,100153.73
2024-03-05T07:13:59.509Z,100156.23
2024-03-05T07:16:26.841Z,100154.33
2024-03-05T07:18:56.855Z,100147.28
2024-03-05T07:21:24.940Z,100148.39
2024-03-05T07:23:54.674Z,100149.14
2024-03-05T07:26:22.987Z,100148.86
2024-03-05T07:28:50.393Z,100153.38
2024-03-05T07:31:18.700Z,100151.06
2024-03-05T07:33:49.279Z,100144.02
2024-03-05T07:36:19.304Z,100139.45
2024-03-05T07:38:47.069Z,100137.88
2024-03-05T07:41:22.780Z,100139.02
2024-03-05T07:43:57.244Z,100136.80
2024-03-05T07:46:24.463Z,100141.41
2024-03-05T07:48:51.403Z,100143.48
2024-03-05T07:51:24.396Z,100141.80
2024-03-05T07:53:55.249Z,100136.95
2024-03-05T07:56:22.560Z,100140.19
2024-03-05T07:58:49.748Z,100134.61
2024-03-05T08:01:17.017Z,100130.42
2024-03-05T08:03:44.407Z,100130.94
2024-03-05T08:06:11.367Z,100133.48
2024-03-05T08:08:38.506Z,100135.71
2024-03-05T08:11:06.356Z,100131.73
2024-03-05T08:13:36.904Z,100134.77
2024-03-05T08:16:06.684Z,100137.14
2024-03-05T08:18:33.926Z,100135.70
2024-03-05T08:21:03.606Z,100135.77
2024-03-05T08:23:30.797Z,100131.51
2024-03-05T08:25:57.955Z,100132.47
2024-03-05T08:28:25.782Z,100130.48
2024-03-05T08:30:55.263Z,100125.31
2024-03-05T08:33:25.236Z,100126.35
2024-03-05T08:35:52.401Z,100124.86
2024-03-05T08:38:19.394Z,100124.41
2024-03-05T08:40:47.578Z,100124.83
2024-03-05T08:43:15.675Z,100123.90
2024-03-05T08:45:42.763Z,100120.10
2024-03-05T08:48:09.916Z,100118.00
2024-03-05T08:50:36.993Z,100118.34
2024-03-05T08:53:06.336Z,100114.70
2024-03-05T08:55:33.693Z,100113.07
2024-03-05T08:58:01.786Z,100110.16
2024-03-05T09:00:40.949Z,100111.88
2024-03-05T09:04:11.651Z,100106.35
2024-03-05T09:11:07.142Z,100100.38
2024-03-05T09:13:34.554Z,100098.55
2024-03-05T09:16:34.562Z,100102.41
2024-03-05T09:19:02.040Z,100097.65
2024-03-05T09:21:30.018Z,100097.83
2024-03-05T09:23:58.398Z,100092.38
2024-03-05T09:26:27.313Z,100083.80
2024-03-05T09:28:55.234Z,100083.63
2024-03-05T09:31:22.710Z,100079.02
2024-03-05T09:33:50.166Z,100076.76
2024-03-05T10:29:17.329Z,100017.27
2024-03-05T10:31:45.485Z,100015.52
2024-03-05T10:34:12.425Z,100017.67
2024-03-05T10:36:40.924Z,100015.00
2024-03-05T10:39:08.906Z,100010.83
2024-03-05T10:41:47.205Z,100016.13
2024-03-05T10:44:18.442Z,100008.20
2024-03-05T10:46:46.789Z,100010.27
2024-03-05T10:49:14.189Z,99999.59
2024-03-05T10:51:41.774Z,100001.30
2024-03-05T10:54:08.813Z,99996.95
2024-03-05T11:01:01.440Z,99989.17
2024-03-05T11:03:40.998Z,99990.91
2024-03-05T11:06:08.774Z,99988.55
2024-03-05T11:08:36.773Z,99985.52
2024-03-05T11:11:06.620Z,99983.80
2024-03-05T11:13:34.163Z,99978.66
2024-03-05T11:16:03.398Z,99979.00
2024-03-05T11:18:35.123Z,99968.62
2024-03-05T11:21:09.326Z,99966.56
2024-03-05T11:30:31.057Z,99963.60
2024-03-05T11:33:10.716Z,99967.69
2024-03-05T11:35:43.002Z,99968.14
2024-03-05T11:38:15.485Z,99963.78
2024-03-05T11:40:44.756Z,99961.13
2024-03-05T11:50:54.714Z,99947.67
2024-03-05T11:53:21.356Z,99947.33
2024-03-05T11:55:51.957Z,99942.89
2024-03-05T11:58:25.525Z,99944.85
2024-03-05T12:01:01.627Z,99939.43
2024-03-05T12:03:28.465Z,99943.42
2024-03-05T12:05:55.381Z,99943.99
2024-03-05T12:08:25.975Z,99942.13
2024-03-05T12:11:01.118Z,99936.30
2024-03-05T12:13:27.937Z,99937.66
2024-03-05T12:15:54.525Z,99935.33
2024-03-05T12:18:21.067Z,99931.87
2024-03-05T12:20:48.131Z,99926.85
2024-03-05T12:23:15.124Z,99930.70
2024-03-05T12:26:03.057Z,99930.21
2024-03-05T12:28:33.589Z,99929.13
2024-03-05T12:31:00.680Z,99922.33
2024-03-05T12:33:27.737Z,99928.53
2024-03-05T12:35:54.980Z,99921.48
2024-03-05T12:38:23.599Z,99925.70
2024-03-05T12:41:00.575Z,99923.85
2024-03-05T12:43:29.850Z,99922.13
2024-03-05T12:46:02.955Z,99923.91
2024-03-05T12:48:32.531Z,99930.15
2024-03-05T12:51:03.890Z,99924.29
2024-03-05T12:53:31.827Z,99924.26
2024-03-05T12:56:02.378Z,99919.52
2024-03-05T12:58:43.504Z,99920.73
2024-03-05T13:01:15.437Z,99918.54
2024-03-05T13:03:45.686Z,99917.73
2024-03-05T13:06:14.892Z,99913.79
2024-03-05T13:08:42.309Z,99915.58
2024-03-05T13:11:09.122Z,99920.94
2024-03-05T13:13:35.839Z,99917.21
2024-03-05T13:16:02.522Z,99919.77
2024-03-05T13:18:29.575Z,99916.95
2024-03-05T13:20:57.419Z,99922.92
2024-03-05T13:23:24.350Z,99914.33
2024-03-05T13:25:51.040Z,99914.99
2024-03-05T13:28:17.660Z,99918.10
2024-03-05T13:30:44.715Z,99913.83
2024-03-05T13:33:12.702Z,99911.42
2024-03-05T13:35:41.266Z,99909.81
2024-03-05T13:38:10.848Z,99913.71
2024-03-05T13:40:37.898Z,99914.69
2024-03-05T13:43:04.864Z,99914.92
2024-03-05T13:45:31.602Z,99907.90
2024-03-05T13:47:58.552Z,99910.15
2024-03-05T13:50:25.298Z,99911.91
2024-03-05T13:52:52.271Z,99912.38
2024-03-05T13:55:24.921Z,99915.77
2024-03-05T13:57:52.515Z,99913.31
2024-03-05T14:00:20.164Z,99911.45
2024-03-05T14:02:46.880Z,99913.20
2024-03-05T14:05:14.050Z,99911.95
2024-03-05T14:07:40.650Z,99911.44
2024-03-05T14:10:11.246Z,99910.66
2024-03-05T14:12:42.366Z,99912.89
2024-03-05T14:15:20.192Z,99906.26
2024-03-05T14:17:46.737Z,99907.76
2024-03-05T14:20:14.003Z,99909.42
2024-03-05T14:22:43.891Z,99912.45
2024-03-05T14:25:12.301Z,99911.58
2024-03-05T14:27:42.315Z,99913.31
2024-03-05T14:30:14.265Z,99914.64
2024-03-05T14:32:43.830Z,99911.64
2024-03-05T14:35:11.207Z,99911.58
2024-03-05T14:37:37.821Z,99920.05
2024-03-05T14:40:05.570Z,99917.29
2024-03-05T14:42:34.421Z,99915.31
2024-03-05T14:45:01.672Z,99917.72
2024-03-05T14:47:28.198Z,99920.91
2024-03-05T14:49:55.354Z,99918.11
2024-03-05T14:52:22.979Z,99917.89
2024-03-05T14:54:49.683Z,99918.01
2024-03-05T14:57:16.213Z,99920.27
2024-03-05T14:59:42.801Z,99917.24
2024-03-05T15:02:10.414Z,99920.45
2024-03-05T15:04:37.107Z,99921.09
2024-03-05T15:07:04.269Z,99921.90
2024-03-05T15:09:33.577Z,99922.88
2024-03-05T15:18:36.798Z,99928.45
2024-03-05T15:21:10.095Z,99931.33
2024-03-05T15:23:38.717Z,99934.39
2024-03-05T15:26:07.108Z,99937.74
2024-03-05T15:28:38.173Z,99935.27
2024-03-05T15:31:10.318Z,99936.00
2024-03-05T15:33:41.118Z,99938.83
2024-03-05T15:36:09.809Z,99936.48
2024-03-05T15:38:36.983Z,99942.85
2024-03-05T15:47:40.775Z,99944.52
2024-03-05T15:50:10.400Z,99943.79
2024-03-05T15:52:37.953Z,99943.02
2024-03-05T15:55:06.174Z,99942.45
2024-03-05T15:57:53.554Z,99949.02
2024-03-05T16:00:30.640Z,99947.13
2024-03-05T16:03:10.969Z,99951.67
2024-03-05T16:05:51.796Z,99956.96
2024-03-05T16:08:27.484Z,99957.11
2024-03-05T16:10:55.756Z,99958.52
2024-03-05T16:13:23.675Z,99958.20
2024-03-05T16:15:51.604Z,99955.55
2024-03-05T16:18:19.100Z,99954.51
2024-03-05T16:20:47.601Z,99956.98
2024-03-05T16:23:15.308Z,99954.36
2024-03-05T16:25:43.115Z,99953.76
2024-03-05T16:28:10.921Z,99956.08
2024-03-05T16:30:39.459Z,99954.46
2024-03-05T16:33:07.899Z,99956.98
2024-03-05T16:35:37.221Z,99958.40
2024-03-05T16:38:06.188Z,99956.63
2024-03-05T16:40:38.349Z,99960.10
2024-03-05T16:43:07.660Z,99964.13
2024-03-05T16:45:36.579Z,99960.26
2024-03-05T16:48:10.902Z,99962.95
2024-03-05T16:50:44.201Z,99961.86
2024-03-05T16:53:12.746Z,99963.70
2024-03-05T16:55:40.939Z,99966.40
2024-03-05T16:58:13.508Z,99967.48
2024-03-05T17:00:49.066Z,99967.05
2024-03-05T17:03:16.470Z,99963.55
2024-03-05T17:05:47.773Z,99966.29
2024-03-05T17:08:16.192Z,99966.45
2024-03-05T17:10:45.732Z,99962.45
2024-03-05T17:13:20.395Z,99962.68
2024-03-05T17:15:56.610Z,99958.33
2024-03-05T17:18:25.528Z,99964.62
2024-03-05T17:20:54.960Z,99963.11
2024-03-05T17:23:26.225Z,99961.54
2024-03-05T17:25:57.521Z,99966.27
2024-03-05T17:28:28.236Z,99962.89
2024-03-05T17:30:57.558Z,99964.59
2024-03-05T17:33:25.544Z,99968.29
2024-03-05T17:35:56.567Z,99967.73
2024-03-05T17:38:26.272Z,99966.50
2024-03-05T17:40:54.654Z,99961.88
2024-03-05T17:43:21.871Z,99961.52
2024-03-05T17:45:49.730Z,99960.55
2024-03-05T17:48:17.315Z,99962.27
2024-03-05T17:50:46.360Z,99963.30
2024-03-05T17:53:14.571Z,99968.41
2024-03-05T17:55:41.832Z,99965.88
2024-03-05T17:58:10.013Z,99967.39
2024-03-05T18:00:46.723Z,99969.20
2024-03-05T18:03:19.007Z,99968.49
2024-03-05T18:05:47.257Z,99972.39
2024-03-05T18:08:15.067Z,99972.88
2024-03-05T18:10:43.483Z,99972.48
2024-03-05T18:13:11.926Z,99972.75
2024-03-05T18:15:40.100Z,99968.64
2024-03-05T18:18:08.168Z,99964.47
2024-03-05T18:20:36.841Z,99961.77
2024-03-05T18:23:06.711Z,99964.52
2024-03-05T18:32:16.904Z,99958.05
2024-03-05T18:34:44.390Z,99954.40
2024-03-05T18:37:13.190Z,99957.91
2024-03-05T18:39:40.352Z,99955.16
2024-03-05T18:42:10.544Z,99958.08
2024-03-05T18:44:39.426Z,99959.47
2024-03-05T18:47:08.278Z,99955.83
2024-03-05T18:49:35.864Z,99961.64
2024-03-05T18:52:05.059Z,99958.21
2024-03-05T18:54:32.548Z,99958.38
2024-03-05T18:57:01.333Z,99956.24
2024-03-05T18:59:30.489Z,99962.00
2024-03-05T19:01:57.928Z,99967.06
2024-03-05T19:04:27.804Z,99971.17
2024-03-05T19:06:55.088Z,99965.04
2024-03-05T19:09:22.301Z,99967.15
2024-03-05T19:11:49.745Z,99962.91
2024-03-05T19:14:19.020Z,99964.48
2024-03-05T19:16:48.590Z,99963.48
2024-03-05T19:19:16.982Z,99962.18
2024-03-05T19:21:45.546Z,99957.35
2024-03-05T19:24:13.298Z,99957.86
2024-03-05T19:26:40.725Z,99956.13
2024-03-05T19:29:08.369Z,99955.80
2024-03-05T19:31:35.917Z,99958.88
2024-03-05T19:34:04.214Z,99954.75
2024-03-05T19:36:32.566Z,99958.64
2024-03-05T19:39:00.621Z,99957.05
2024-03-05T19:41:28.756Z,99954.89
2024-03-05T19:43:59.953Z,99958.84
2024-03-05T19:46:27.701Z,99957.05
2024-03-05T19:48:56.691Z,99955.04
2024-03-05T19:57:38.500Z,99954.23
2024-03-05T20:00:13.439Z,99948.41
2024-03-05T20:02:41.413Z,99946.42
2024-03-05T20:05:09.112Z,99944.20
2024-03-05T20:07:36.907Z,99943.20
2024-03-05T20:10:05.689Z,99943.08
2024-03-05T20:12:33.015Z,99940.45
2024-03-05T20:15:00.078Z,99938.43
2024-03-05T20:17:28.643Z,99936.86
2024-03-05T20:19:55.984Z,99938.15
2024-03-05T20:22:26.289Z,99938.36
2024-03-05T20:25:00.282Z,99941.46
2024-03-05T20:27:34.092Z,99942.63
2024-03-05T20:30:02.748Z,99944.27
2024-03-05T20:32:30.743Z,99944.23
2024-03-05T20:34:58.910Z,99949.99
2024-03-05T20:37:27.166Z,99946.08
2024-03-05T20:39:57.343Z,99947.67
2024-03-05T20:42:24.881Z,99948.25
2024-03-05T20:44:52.293Z,99945.13
2024-03-05T20:47:20.470Z,99953.02
2024-03-05T20:49:48.003Z,99951.44
2024-03-05T20:52:19.353Z,99949.73
2024-03-05T20:54:47.453Z,99948.08
2024-03-05T20:57:14.841Z,99950.40
2024-03-05T20:59:43.485Z,99948.30
2024-03-05T21:02:11.817Z,99946.67
2024-03-05T21:04:39.642Z,99946.05
2024-03-05T21:07:07.433Z,99942.52
2024-03-05T21:09:34.940Z,99942.88
2024-03-05T21:12:05.060Z,99942.50
2024-03-05T21:14:33.154Z,99953.77
2024-03-05T21:17:00.539Z,99952.44
2024-03-05T21:19:30.051Z,99949.28
2024-03-05T21:21:57.879Z,99948.00
2024-03-05T21:24:27.605Z,99952.34
2024-03-05T21:27:10.038Z,99949.73
2024-03-05T21:29:42.283Z,99953.92
2024-03-05T21:32:10.134Z,99955.21
2024-03-05T21:34:37.558Z,99963.35
2024-03-05T21:37:05.353Z,99965.73
2024-03-05T21:46:00.137Z,99975.98
2024-03-05T21:48:28.047Z,99976.58
2024-03-05T21:51:03.505Z,99981.81
2024-03-05T21:53:40.058Z,99989.05
2024-03-05T21:56:07.776Z,99989.12
2024-03-05T21:58:37.562Z,99991.30
2024-03-05T22:01:06.091Z,99992.10
2024-03-05T22:03:36.196Z,99995.65
2024-03-05T22:06:11.914Z,99999.94
2024-03-05T22:08:42.502Z,100004.09
2024-03-05T22:35:21.682Z,99990.31
2024-03-05T22:37:54.036Z,99992.73
2024-03-05T22:40:23.390Z,99993.21
2024-03-05T22:42:50.810Z,99994.78
2024-03-05T22:45:21.249Z,99996.86
2024-03-05T22:47:52.403Z,99994.09
2024-03-05T22:50:19.960Z,99993.35
2024-03-05T22:52:47.253Z,99991.45
2024-03-05T22:55:14.399Z,99990.06
2024-03-05T22:57:52.034Z,99991.02
2024-03-05T23:00:51.823Z,99989.52
2024-03-05T23:03:19.497Z,99995.69
2024-03-05T23:05:47.896Z,99996.14
2024-03-05T23:08:15.787Z,99994.84
2024-03-05T23:10:43.132Z,99993.40
2024-03-05T23:13:10.561Z,99998.00
2024-03-05T23:15:38.516Z,99997.48
2024-03-05T23:18:07.034Z,99997.21
2024-03-05T23:20:34.220Z,100000.39
2024-03-05T23:23:01.453Z,100002.06
2024-03-05T23:25:29.010Z,100000.34
2024-03-05T23:27:58.764Z,100004.82
2024-03-05T23:30:27.305Z,100000.63
2024-03-05T23:32:56.018Z,100003.07
2024-03-05T23:35:23.961Z,100003.80
2024-03-05T23:38:12.994Z,100003.61
2024-03-05T23:40:40.620Z,100006.95
2024-03-05T23:43:07.802Z,100007.36
2024-03-05T23:45:35.256Z,100010.67
2024-03-05T23:48:02.631Z,100014.23
2024-03-05T23:50:30.551Z,100014.29
2024-03-05T23:52:57.618Z,100009.73
2024-03-05T23:55:24.954Z,100010.60
2024-03-05T23:57:52.114Z,100010.45
